Time;durP1;ratioP1;P1;durP2;ratioP2;P2;SDS_P1;SDS_P2;PMS_P1;PMS_P2;Temp;Humidity;BMP_temperature;BMP_pressure;BME280_temperature;BME280_humidity;BME280_pressure;Samples;Min_cycle;Max_cycle;Signal;HPM_P1;HPM_P2
2022/03/11 00:01:25;;;;;;;;;;;;;;;;;;6180158;23;19927;-84
2022/03/11 00:03:52;;;;;;;;;;;;;;;;;;6177575;23;19920;-84
2022/03/11 00:06:38;;;;;;;;;;;;;;;;;;6181200;23;19919;-84
2022/03/11 00:09:04;;;;;;;;;;;;;;;;;;6202964;23;19999;-84
2022/03/11 00:11:34;;;;;;;;;;;;;;;;;;6177777;23;19923;-84
2022/03/11 00:14:08;;;;;;;;;;;;;;;;;;6203801;23;20006;-84
2022/03/11 00:16:35;;;;;;;;;;;;;;;;;;6187419;23;19963;-84
2022/03/11 00:19:05;;;;;;;;;;;;;;;;;;6185157;23;20446;-84
2022/03/11 00:21:31;;;;;;;;;;;;;;;;;;6184544;23;19915;-84
2022/03/11 00:23:59;;;;;;;;;;;;;;;;;;6185316;23;19923;-84
2022/03/11 00:26:26;;;;;;;;;;;;;;;;;;6236783;23;19916;-84
2022/03/11 00:28:53;;;;;;;;;;;;;;;;;;6237295;23;19916;-84
2022/03/11 00:31:21;;;;;;;;;;;;;;;;;;6186798;23;19955;-84
2022/03/11 00:33:47;;;;;;;;;;;;;;;;;;6186390;23;20367;-84
2022/03/11 00:36:26;;;;;;;;;;;;;;;;;;6215799;23;19930;-84
2022/03/11 00:38:54;;;;;;;;;;;;;;;;;;6187152;23;19958;-84
2022/03/11 00:41:21;;;;;;;;;;;;;;;;;;6189787;23;19920;-84
2022/03/11 00:43:52;;;;;;;;;;;;;;;;;;6189044;23;19965;-84
2022/03/11 00:46:27;;;;;;;;;;;;;;;;;;6232052;23;19970;-84
2022/03/11 00:48:55;;;;;;;;;;;;;;;;;;6182589;23;19919;-84
2022/03/11 00:51:21;;;;;;;;;;;;;;;;;;6236921;23;19923;-84
2022/03/11 00:53:48;;;;;;;;;;;;;;;;;;6207195;23;19919;-84
2022/03/11 00:56:30;;;;;;;;;;;;;;;;;;6191774;23;19934;-84
2022/03/11 00:58:57;;;;;;;;;;;;;;;;;;6236595;23;20241;-84
2022/03/11 01:01:43;;;;;;;;;;;;;;;;;;6166229;23;19920;-84
2022/03/11 01:04:10;;;;;;;;;;;;;;;;;;6181489;23;19995;-84
2022/03/11 01:06:37;;;;;;;;;;;;;;;;;;6183230;23;19962;-84
2022/03/11 01:09:19;;;;;;;;;;;;;;;;;;6207761;23;19916;-84
2022/03/11 01:11:45;;;;;;;;;;;;;;;;;;6156943;23;20341;-84
2022/03/11 01:14:15;;;;;;;;;;;;;;;;;;6207155;23;19916;-84
2022/03/11 01:16:42;;;;;;;;;;;;;;;;;;6181703;23;19931;-84
2022/03/11 01:19:10;;;;;;;;;;;;;;;;;;6158510;23;20236;-84
2022/03/11 01:21:36;;;;;;;;;;;;;;;;;;6182511;23;19924;-83
2022/03/11 01:24:03;;;;;;;;;;;;;;;;;;6157915;23;19966;-84
2022/03/11 01:26:30;;;;;;;;;;;;;;;;;;6158762;23;19915;-84
2022/03/11 01:28:58;;;;;;;;;;;;;;;;;;6182556;23;19963;-84
2022/03/11 01:31:25;;;;;;;;;;;;;;;;;;6182599;23;19938;-84
2022/03/11 01:34:07;;;;;;;;;;;;;;;;;;6206061;23;19943;-84
2022/03/11 01:36:37;;;;;;;;;;;;;;;;;;6178686;23;19963;-84
2022/03/11 01:39:04;;;;;;;;;;;;;;;;;;6154584;23;20001;-84
2022/03/11 01:41:32;;;;;;;;;;;;;;;;;;6155632;23;20423;-84
2022/03/11 01:44:13;;;;;;;;;;;;;;;;;;6152431;23;19920;-84
2022/03/11 01:46:40;;;;;;;;;;;;;;;;;;6179265;23;20325;-83
2022/03/11 01:49:07;;;;;;;;;;;;;;;;;;6180173;23;19924;-83
2022/03/11 01:51:34;;;;;;;;;;;;;;;;;;6205043;23;20321;-84
2022/03/11 01:54:02;;;;;;;;;;;;;;;;;;6178987;23;19923;-84
2022/03/11 01:56:29;;;;;;;;;;;;;;;;;;6179759;23;19928;-84
2022/03/11 01:58:59;;;;;;;;;;;;;;;;;;6178381;23;20643;-83
2022/03/11 02:01:26;;;;;;;;;;;;;;;;;;6154311;23;19966;-83
2022/03/11 02:03:57;;;;;;;;;;;;;;;;;;6204619;23;20517;-83
2022/03/11 02:06:24;;;;;;;;;;;;;;;;;;6153862;23;19926;-83
2022/03/11 02:09:03;;;;;;;;;;;;;;;;;;6176713;23;20578;-83
2022/03/11 02:11:36;;;;;;;;;;;;;;;;;;6178890;23;19966;-83
2022/03/11 02:14:02;;;;;;;;;;;;;;;;;;6179588;22;19919;-83
2022/03/11 02:16:32;;;;;;;;;;;;;;;;;;6240698;22;19954;-83
2022/03/11 02:18:58;;;;;;;;;;;;;;;;;;6215875;22;19996;-83
2022/03/11 02:24:22;;;;;;;;;;;;;;;;;;6221416;22;19919;-84
2022/03/11 02:26:55;;;;;;;;;;;;;;;;;;6241234;22;19924;-83
2022/03/11 02:29:22;;;;;;;;;;;;;;;;;;6241097;22;19942;-84
2022/03/11 02:31:49;;;;;;;;;;;;;;;;;;6217630;22;19996;-84
2022/03/11 02:34:17;;;;;;;;;;;;;;;;;;6241531;22;19986;-84
2022/03/11 02:36:44;;;;;;;;;;;;;;;;;;6241171;22;19967;-84
2022/03/11 02:39:12;;;;;;;;;;;;;;;;;;6241241;22;19915;-83
2022/03/11 02:41:42;;;;;;;;;;;;;;;;;;6244563;22;19919;-83
2022/03/11 02:44:22;;;;;;;;;;;;;;;;;;6242944;22;19964;-84
2022/03/11 02:46:49;;;;;;;;;;;;;;;;;;6217261;22;19919;-83
2022/03/11 02:49:16;;;;;;;;;;;;;;;;;;6217231;22;20333;-84
2022/03/11 02:51:42;;;;;;;;;;;;;;;;;;6216766;22;19919;-84
2022/03/11 02:54:12;;;;;;;;;;;;;;;;;;6216415;22;19962;-83
2022/03/11 02:56:38;;;;;;;;;;;;;;;;;;6174802;23;19935;-84
2022/03/11 02:59:04;;;;;;;;;;;;;;;;;;6126497;23;19920;-83
2022/03/11 03:01:32;;;;;;;;;;;;;;;;;;6151750;23;19924;-83
2022/03/11 03:04:00;;;;;;;;;;;;;;;;;;6126478;23;19924;-84
2022/03/11 03:06:29;;;;;;;;;;;;;;;;;;6151597;23;19979;-84
2022/03/11 03:08:57;;;;;;;;;;;;;;;;;;6151201;23;19927;-84
2022/03/11 03:11:23;;;;;;;;;;;;;;;;;;6152140;23;20342;-83
2022/03/11 03:13:53;;;;;;;;;;;;;;;;;;6176639;23;19920;-83
2022/03/11 03:16:32;;;;;;;;;;;;;;;;;;6176320;23;19947;-83
2022/03/11 03:18:59;;;;;;;;;;;;;;;;;;6175521;23;19920;-84
2022/03/11 03:21:27;;;;;;;;;;;;;;;;;;6175878;23;20412;-83
2022/03/11 03:24:05;;;;;;;;;;;;;;;;;;6150526;23;20308;-84
2022/03/11 03:26:33;;;;;;;;;;;;;;;;;;6178352;22;19924;-84
2022/03/11 03:28:58;;;;;;;;;;;;;;;;;;6242479;22;19955;-84
2022/03/11 03:31:26;;;;;;;;;;;;;;;;;;6242074;22;19923;-84
2022/03/11 03:33:53;;;;;;;;;;;;;;;;;;6216832;22;19925;-83
2022/03/11 03:36:35;;;;;;;;;;;;;;;;;;6270116;22;20010;-84
2022/03/11 03:39:01;;;;;;;;;;;;;;;;;;6216459;22;20318;-83
2022/03/11 03:41:29;;;;;;;;;;;;;;;;;;6240366;22;19919;-83
2022/03/11 03:44:04;;;;;;;;;;;;;;;;;;6270124;22;19943;-83
2022/03/11 03:46:52;;;;;;;;;;;;;;;;;;6218083;22;20009;-83
2022/03/11 03:49:19;;;;;;;;;;;;;;;;;;6214567;22;19919;-84
2022/03/11 03:52:02;;;;;;;;;;;;;;;;;;6270052;22;19926;-84
2022/03/11 03:54:29;;;;;;;;;;;;;;;;;;6218370;22;19941;-84
2022/03/11 03:56:56;;;;;;;;;;;;;;;;;;6240297;22;19923;-83
2022/03/11 03:59:24;;;;;;;;;;;;;;;;;;6242681;22;19919;-83
2022/03/11 04:01:51;;;;;;;;;;;;;;;;;;6242589;22;20683;-83
2022/03/11 04:04:24;;;;;;;;;;;;;;;;;;6243515;22;20025;-84
2022/03/11 04:06:51;;;;;;;;;;;;;;;;;;6218025;22;19982;-83
2022/03/11 04:09:18;;;;;;;;;;;;;;;;;;6243755;22;19995;-83
2022/03/11 04:11:46;;;;;;;;;;;;;;;;;;6270996;22;19958;-83
2022/03/11 04:14:13;;;;;;;;;;;;;;;;;;6244025;22;19919;-83
2022/03/11 04:16:40;;;;;;;;;;;;;;;;;;6242594;22;19927;-83
2022/03/11 04:19:07;;;;;;;;;;;;;;;;;;6242698;22;19923;-83
2022/03/11 04:21:53;;;;;;;;;;;;;;;;;;6270854;22;19992;-83
2022/03/11 04:24:21;;;;;;;;;;;;;;;;;;6217716;22;19925;-83
2022/03/11 04:26:48;;;;;;;;;;;;;;;;;;6244479;22;19919;-83
2022/03/11 04:29:24;;;;;;;;;;;;;;;;;;6220449;22;19941;-83
2022/03/11 04:31:51;;;;;;;;;;;;;;;;;;6237478;23;19920;-83
2022/03/11 04:34:18;;;;;;;;;;;;;;;;;;6236680;23;19962;-83
2022/03/11 04:37:03;;;;;;;;;;;;;;;;;;6145412;23;19925;-83
2022/03/11 04:39:29;;;;;;;;;;;;;;;;;;6145894;23;20477;-83
2022/03/11 04:41:59;;;;;;;;;;;;;;;;;;6146629;23;19916;-83
2022/03/11 04:44:26;;;;;;;;;;;;;;;;;;6121691;23;19944;-83
2022/03/11 04:46:53;;;;;;;;;;;;;;;;;;6121438;23;20502;-83
2022/03/11 04:49:20;;;;;;;;;;;;;;;;;;6147170;23;20004;-83
2022/03/11 04:52:04;;;;;;;;;;;;;;;;;;6147010;23;19923;-83
2022/03/11 04:54:33;;;;;;;;;;;;;;;;;;6146909;23;19916;-83
2022/03/11 04:57:01;;;;;;;;;;;;;;;;;;6121255;23;19967;-83
2022/03/11 04:59:28;;;;;;;;;;;;;;;;;;6144853;23;20326;-83
2022/03/11 05:01:55;;;;;;;;;;;;;;;;;;6147256;23;19924;-84
2022/03/11 05:04:37;;;;;;;;;;;;;;;;;;6114597;23;19960;-83
2022/03/11 05:07:07;;;;;;;;;;;;;;;;;;6119017;23;19921;-83
2022/03/11 05:09:35;;;;;;;;;;;;;;;;;;6147752;23;19921;-83
2022/03/11 05:12:02;;;;;;;;;;;;;;;;;;6123152;23;19987;-83
2022/03/11 05:14:29;;;;;;;;;;;;;;;;;;6122148;23;19921;-83
2022/03/11 05:16:57;;;;;;;;;;;;;;;;;;6122741;23;19931;-84
2022/03/11 05:19:24;;;;;;;;;;;;;;;;;;6123154;23;20451;-84
2022/03/11 05:21:51;;;;;;;;;;;;;;;;;;6123281;23;19920;-84
2022/03/11 05:24:32;;;;;;;;;;;;;;;;;;6124881;23;20301;-83
2022/03/11 05:26:58;;;;;;;;;;;;;;;;;;6123411;23;19967;-83
2022/03/11 05:29:27;;;;;;;;;;;;;;;;;;6122652;23;20011;-83
2022/03/11 05:31:54;;;;;;;;;;;;;;;;;;6147723;23;20074;-84
2022/03/11 05:34:21;;;;;;;;;;;;;;;;;;6122080;23;20330;-83
2022/03/11 05:36:48;;;;;;;;;;;;;;;;;;6149262;23;19924;-83
2022/03/11 05:39:16;;;;;;;;;;;;;;;;;;6174319;23;19920;-83
2022/03/11 05:41:46;;;;;;;;;;;;;;;;;;6150726;23;19983;-83
2022/03/11 05:44:18;;;;;;;;;;;;;;;;;;6151254;23;19917;-83
2022/03/11 05:46:45;;;;;;;;;;;;;;;;;;6176079;23;19927;-83
2022/03/11 05:49:13;;;;;;;;;;;;;;;;;;6151879;23;19920;-83
2022/03/11 05:51:54;;;;;;;;;;;;;;;;;;6175441;23;19994;-83
2022/03/11 05:54:31;;;;;;;;;;;;;;;;;;6177590;23;19920;-84
2022/03/11 05:57:02;;;;;;;;;;;;;;;;;;6236751;23;19926;-83
2022/03/11 05:59:29;;;;;;;;;;;;;;;;;;6212606;23;20000;-84
2022/03/11 06:01:57;;;;;;;;;;;;;;;;;;6237144;23;19915;-83
2022/03/11 06:04:24;;;;;;;;;;;;;;;;;;6237343;22;19923;-84
2022/03/11 06:06:50;;;;;;;;;;;;;;;;;;6217627;22;19930;-84
2022/03/11 06:09:17;;;;;;;;;;;;;;;;;;6218363;22;20746;-84
2022/03/11 06:11:44;;;;;;;;;;;;;;;;;;6242966;22;19927;-83
2022/03/11 06:14:12;;;;;;;;;;;;;;;;;;6218907;22;19938;-84
2022/03/11 06:16:39;;;;;;;;;;;;;;;;;;6242394;22;19923;-84
2022/03/11 06:19:06;;;;;;;;;;;;;;;;;;6242408;22;19926;-84
2022/03/11 06:21:34;;;;;;;;;;;;;;;;;;6242485;22;19919;-83
2022/03/11 06:24:02;;;;;;;;;;;;;;;;;;6242242;22;20292;-84
2022/03/11 06:26:29;;;;;;;;;;;;;;;;;;6243372;22;19919;-84
2022/03/11 06:28:56;;;;;;;;;;;;;;;;;;6243255;22;20018;-84
2022/03/11 06:31:23;;;;;;;;;;;;;;;;;;6244622;22;19919;-84
2022/03/11 06:33:50;;;;;;;;;;;;;;;;;;6220035;22;19921;-84
2022/03/11 06:36:16;;;;;;;;;;;;;;;;;;6243949;22;19930;-83
2022/03/11 06:38:43;;;;;;;;;;;;;;;;;;6217963;22;19989;-84
2022/03/11 06:41:09;;;;;;;;;;;;;;;;;;6243747;22;19986;-84
2022/03/11 06:43:48;;;;;;;;;;;;;;;;;;6271028;22;19918;-84
2022/03/11 06:46:16;;;;;;;;;;;;;;;;;;6243477;22;20034;-84
2022/03/11 06:48:46;;;;;;;;;;;;;;;;;;6243167;22;19922;-83
2022/03/11 06:51:32;;;;;;;;;;;;;;;;;;6175240;23;20110;-85
2022/03/11 06:54:12;;;;;;;;;;;;;;;;;;6151283;23;20375;-86
2022/03/11 06:56:38;;;;;;;;;;;;;;;;;;6152549;23;20014;-85
2022/03/11 06:59:14;;;;;;;;;;;;;;;;;;6130805;23;19916;-85
2022/03/11 07:01:40;;;;;;;;;;;;;;;;;;6128448;23;19920;-85
2022/03/11 07:27:48;;;;;;;;;;;;;;;;;;5811408;24;20000;-86
2022/03/11 07:34:01;;;;;;;;;;;;;;;;;;;;;
2022/03/11 07:55:08;;;;;;;;;;;;;;;;;;5780787;24;20381;-86
2022/03/11 07:58:07;;;;;;;;;;;;;;;;;;5801917;24;20224;-86
2022/03/11 08:03:46;;;;;;;;;;;;;;;;;;5785984;24;19921;-86
2022/03/11 08:06:13;;;;;;;;;;;;;;;;;;5764906;24;19921;-86
2022/03/11 08:08:50;;;;;;;;;;;;;;;;;;5764946;24;20027;-85
2022/03/11 08:11:17;;;;;;;;;;;;;;;;;;5785911;24;19933;-86
2022/03/11 08:13:44;;;;;;;;;;;;;;;;;;5763108;24;19968;-87
2022/03/11 08:16:12;;;;;;;;;;;;;;;;;;5830007;24;19919;-87
2022/03/11 08:18:39;;;;;;;;;;;;;;;;;;5900088;24;20456;-87
2022/03/11 08:21:05;;;;;;;;;;;;;;;;;;5902781;23;19994;-88
2022/03/11 08:23:32;;;;;;;;;;;;;;;;;;5953642;23;19922;-87
2022/03/11 08:25:59;;;;;;;;;;;;;;;;;;6060727;23;19920;-87
2022/03/11 08:28:27;;;;;;;;;;;;;;;;;;6127753;23;19916;-87
2022/03/11 08:30:57;;;;;;;;;;;;;;;;;;6128234;23;19917;-86
2022/03/11 08:33:29;;;;;;;;;;;;;;;;;;6154017;23;19920;-85
2022/03/11 08:35:56;;;;;;;;;;;;;;;;;;6128546;23;19916;-85
2022/03/11 08:38:24;;;;;;;;;;;;;;;;;;6128631;23;19921;-85
2022/03/11 08:40:51;;;;;;;;;;;;;;;;;;6154711;23;19916;-85
2022/03/11 08:43:19;;;;;;;;;;;;;;;;;;6152525;23;19920;-86
2022/03/11 08:45:46;;;;;;;;;;;;;;;;;;6153731;23;19916;-85
2022/03/11 08:48:13;;;;;;;;;;;;;;;;;;6128813;23;20253;-85
2022/03/11 08:50:41;;;;;;;;;;;;;;;;;;6130706;23;19966;-86
2022/03/11 08:53:08;;;;;;;;;;;;;;;;;;6154683;23;19959;-85
2022/03/11 08:55:37;;;;;;;;;;;;;;;;;;6153631;23;19985;-85
2022/03/11 08:58:03;;;;;;;;;;;;;;;;;;6126992;23;20345;-86
2022/03/11 09:00:31;;;;;;;;;;;;;;;;;;6154245;23;20005;-86
2022/03/11 09:02:59;;;;;;;;;;;;;;;;;;6128972;23;19916;-86
2022/03/11 09:05:26;;;;;;;;;;;;;;;;;;6155047;23;19920;-86
2022/03/11 09:07:54;;;;;;;;;;;;;;;;;;6199982;23;19966;-86
2022/03/11 09:10:39;;;;;;;;;;;;;;;;;;6188963;23;19919;-86
2022/03/11 09:13:10;;;;;;;;;;;;;;;;;;6181829;22;20290;-85
2022/03/11 09:15:37;;;;;;;;;;;;;;;;;;6243952;22;19919;-86
2022/03/11 09:18:04;;;;;;;;;;;;;;;;;;6220874;22;19923;-85
2022/03/11 09:20:30;;;;;;;;;;;;;;;;;;6246730;22;19926;-86
2022/03/11 09:22:59;;;;;;;;;;;;;;;;;;6247212;22;19916;-85
2022/03/11 09:25:26;;;;;;;;;;;;;;;;;;6247092;22;19964;-86
2022/03/11 09:27:53;;;;;;;;;;;;;;;;;;6222083;22;20336;-86
2022/03/11 09:30:20;;;;;;;;;;;;;;;;;;6246838;22;19922;-85
2022/03/11 09:32:48;;;;;;;;;;;;;;;;;;6247382;22;19945;-86
2022/03/11 09:35:15;;;;;;;;;;;;;;;;;;6247149;22;19919;-86
2022/03/11 09:37:42;;;;;;;;;;;;;;;;;;6246408;22;19919;-86
2022/03/11 09:40:10;;;;;;;;;;;;;;;;;;6221897;22;19930;-86
2022/03/11 09:42:51;;;;;;;;;;;;;;;;;;6210398;23;19919;-86
2022/03/11 09:45:18;;;;;;;;;;;;;;;;;;6185517;23;20360;-85
2022/03/11 09:47:45;;;;;;;;;;;;;;;;;;6185832;23;19923;-86
2022/03/11 09:50:12;;;;;;;;;;;;;;;;;;6160226;23;19926;-86
2022/03/11 09:52:42;;;;;;;;;;;;;;;;;;6185720;23;19922;-85
2022/03/11 09:55:09;;;;;;;;;;;;;;;;;;6210336;23;19916;-86
2022/03/11 09:57:37;;;;;;;;;;;;;;;;;;6185072;23;19931;-86
2022/03/11 10:00:04;;;;;;;;;;;;;;;;;;6185259;23;19922;-86
2022/03/11 10:02:32;;;;;;;;;;;;;;;;;;6185610;23;20253;-86
2022/03/11 10:04:59;;;;;;;;;;;;;;;;;;6185157;23;19951;-85
2022/03/11 10:07:26;;;;;;;;;;;;;;;;;;6185281;23;19920;-86
2022/03/11 10:09:52;;;;;;;;;;;;;;;;;;6185105;23;20378;-86
2022/03/11 10:12:19;;;;;;;;;;;;;;;;;;6184975;23;20254;-86
2022/03/11 10:14:46;;;;;;;;;;;;;;;;;;6191872;23;19943;-86
2022/03/11 10:17:13;;;;;;;;;;;;;;;;;;6191946;23;20354;-86
2022/03/11 10:19:41;;;;;;;;;;;;;;;;;;6216322;23;19920;-86
2022/03/11 10:22:08;;;;;;;;;;;;;;;;;;6191737;23;19954;-85
2022/03/11 10:24:36;;;;;;;;;;;;;;;;;;6216544;23;20010;-85
2022/03/11 10:27:07;;;;;;;;;;;;;;;;;;6190028;23;19923;-85
2022/03/11 10:29:34;;;;;;;;;;;;;;;;;;6191072;23;19916;-85
2022/03/11 10:32:03;;;;;;;;;;;;;;;;;;6216729;23;19923;-85
2022/03/11 10:34:49;;;;;;;;;;;;;;;;;;6155255;23;19946;-85
2022/03/11 10:37:17;;;;;;;;;;;;;;;;;;6154771;23;19930;-85
2022/03/11 10:39:46;;;;;;;;;;;;;;;;;;6154446;23;21276;-85
2022/03/11 10:42:13;;;;;;;;;;;;;;;;;;6154607;23;19923;-85
2022/03/11 10:44:40;;;;;;;;;;;;;;;;;;6178433;23;20323;-85
2022/03/11 10:47:07;;;;;;;;;;;;;;;;;;6154971;23;20003;-86
2022/03/11 10:49:35;;;;;;;;;;;;;;;;;;6155014;23;19927;-86
2022/03/11 10:52:03;;;;;;;;;;;;;;;;;;6152411;23;19958;-85
2022/03/11 10:54:30;;;;;;;;;;;;;;;;;;6152811;23;19987;-85
2022/03/11 10:56:57;;;;;;;;;;;;;;;;;;6151759;23;19924;-85
2022/03/11 10:59:24;;;;;;;;;;;;;;;;;;6152714;23;19978;-85
2022/03/11 11:01:52;;;;;;;;;;;;;;;;;;6153034;23;20516;-85
2022/03/11 11:04:19;;;;;;;;;;;;;;;;;;6151736;23;19920;-85
2022/03/11 11:06:45;;;;;;;;;;;;;;;;;;6159603;23;19920;-86
2022/03/11 11:09:14;;;;;;;;;;;;;;;;;;6182659;23;19948;-86
2022/03/11 11:11:44;;;;;;;;;;;;;;;;;;6181724;23;19920;-86
2022/03/11 11:14:11;;;;;;;;;;;;;;;;;;6181860;23;19920;-86
2022/03/11 11:16:40;;;;;;;;;;;;;;;;;;6183791;23;19935;-86
2022/03/11 11:19:06;;;;;;;;;;;;;;;;;;6224297;22;19924;-86
2022/03/11 11:21:33;;;;;;;;;;;;;;;;;;6215965;22;19923;-87
2022/03/11 11:24:00;;;;;;;;;;;;;;;;;;6219385;22;20259;-87
2022/03/11 11:26:27;;;;;;;;;;;;;;;;;;6217919;22;20247;-86
2022/03/11 11:28:53;;;;;;;;;;;;;;;;;;6242077;22;19916;-85
2022/03/11 11:31:21;;;;;;;;;;;;;;;;;;6243713;22;19926;-86
2022/03/11 11:33:48;;;;;;;;;;;;;;;;;;6243278;22;20284;-86
2022/03/11 11:36:15;;;;;;;;;;;;;;;;;;6215791;22;19919;-86
2022/03/11 11:38:42;;;;;;;;;;;;;;;;;;6240971;22;19927;-86
2022/03/11 11:41:08;;;;;;;;;;;;;;;;;;6243478;22;19922;-86
2022/03/11 11:43:35;;;;;;;;;;;;;;;;;;6243212;22;19919;-86
2022/03/11 11:46:02;;;;;;;;;;;;;;;;;;6242857;22;19923;-86
2022/03/11 11:48:29;;;;;;;;;;;;;;;;;;6218216;22;19969;-86
2022/03/11 11:51:16;;;;;;;;;;;;;;;;;;6246925;22;19922;-86
2022/03/11 11:53:44;;;;;;;;;;;;;;;;;;6242813;22;19927;-85
2022/03/11 11:56:11;;;;;;;;;;;;;;;;;;6217914;22;19923;-85
2022/03/11 11:58:38;;;;;;;;;;;;;;;;;;6243164;22;19924;-86
2022/03/11 12:01:05;;;;;;;;;;;;;;;;;;6217401;22;19926;-86
2022/03/11 12:03:32;;;;;;;;;;;;;;;;;;6217104;22;19919;-86
2022/03/11 12:06:00;;;;;;;;;;;;;;;;;;6217870;22;20355;-86
2022/03/11 12:08:42;;;;;;;;;;;;;;;;;;6176086;23;19920;-86
2022/03/11 12:11:09;;;;;;;;;;;;;;;;;;6125692;23;19943;-86
2022/03/11 12:13:37;;;;;;;;;;;;;;;;;;6126006;23;19924;-86
2022/03/11 12:16:04;;;;;;;;;;;;;;;;;;6151216;23;19995;-86
2022/03/11 12:18:31;;;;;;;;;;;;;;;;;;6150030;23;19931;-87
2022/03/11 12:20:59;;;;;;;;;;;;;;;;;;6151687;23;20003;-86
2022/03/11 12:23:26;;;;;;;;;;;;;;;;;;6152604;23;20368;-86
2022/03/11 12:25:58;;;;;;;;;;;;;;;;;;6128789;23;20305;-86
2022/03/11 12:28:31;;;;;;;;;;;;;;;;;;6152581;23;19928;-86
2022/03/11 12:30:58;;;;;;;;;;;;;;;;;;6127661;23;19920;-86
2022/03/11 12:33:24;;;;;;;;;;;;;;;;;;6128606;23;20504;-86
2022/03/11 12:35:51;;;;;;;;;;;;;;;;;;6176357;23;19958;-86
2022/03/11 12:38:19;;;;;;;;;;;;;;;;;;6152575;23;19959;-86
2022/03/11 12:41:00;;;;;;;;;;;;;;;;;;6155770;23;19924;-85
2022/03/11 12:43:27;;;;;;;;;;;;;;;;;;6153209;23;20296;-85
2022/03/11 12:45:55;;;;;;;;;;;;;;;;;;6152985;23;19966;-86
2022/03/11 12:48:28;;;;;;;;;;;;;;;;;;6177599;23;19959;-86
2022/03/11 12:50:55;;;;;;;;;;;;;;;;;;6151328;23;20431;-86
2022/03/11 12:53:22;;;;;;;;;;;;;;;;;;6177510;23;19924;-86
2022/03/11 12:56:08;;;;;;;;;;;;;;;;;;6177473;23;19919;-86
2022/03/11 12:58:36;;;;;;;;;;;;;;;;;;6179801;23;19928;-86
2022/03/11 13:01:03;;;;;;;;;;;;;;;;;;6179726;23;19944;-85
2022/03/11 13:03:30;;;;;;;;;;;;;;;;;;6155973;23;19916;-85
2022/03/11 13:06:11;;;;;;;;;;;;;;;;;;6151719;23;19978;-86
2022/03/11 13:08:39;;;;;;;;;;;;;;;;;;6126317;23;20359;-86
2022/03/11 13:11:07;;;;;;;;;;;;;;;;;;6158103;23;20525;-86
2022/03/11 13:13:34;;;;;;;;;;;;;;;;;;6160434;23;20295;-86
2022/03/11 13:16:01;;;;;;;;;;;;;;;;;;6160846;23;19987;-86
2022/03/11 13:18:29;;;;;;;;;;;;;;;;;;6161020;23;19924;-86
2022/03/11 13:20:56;;;;;;;;;;;;;;;;;;6159860;23;19916;-86
2022/03/11 13:23:29;;;;;;;;;;;;;;;;;;6160585;23;19951;-86
2022/03/11 13:25:57;;;;;;;;;;;;;;;;;;6181518;23;19975;-87
2022/03/11 13:28:23;;;;;;;;;;;;;;;;;;6182925;23;19920;-86
2022/03/11 13:30:51;;;;;;;;;;;;;;;;;;6184045;23;19916;-86
2022/03/11 13:33:19;;;;;;;;;;;;;;;;;;6184471;23;20348;-86
2022/03/11 13:35:56;;;;;;;;;;;;;;;;;;6188546;23;19916;-86
2022/03/11 13:38:23;;;;;;;;;;;;;;;;;;6190959;23;20442;-86
2022/03/11 13:40:50;;;;;;;;;;;;;;;;;;6192111;23;19981;-86
2022/03/11 13:43:17;;;;;;;;;;;;;;;;;;6192150;23;20519;-86
2022/03/11 13:45:45;;;;;;;;;;;;;;;;;;6217675;23;19973;-86
2022/03/11 13:48:12;;;;;;;;;;;;;;;;;;6217390;23;19915;-86
2022/03/11 13:50:39;;;;;;;;;;;;;;;;;;6191903;23;19923;-86
2022/03/11 13:53:06;;;;;;;;;;;;;;;;;;6216585;23;19919;-86
2022/03/11 13:55:32;;;;;;;;;;;;;;;;;;6190305;23;19919;-87
2022/03/11 13:57:59;;;;;;;;;;;;;;;;;;6189990;23;19924;-86
2022/03/11 14:00:27;;;;;;;;;;;;;;;;;;6213593;23;19915;-86
2022/03/11 14:03:08;;;;;;;;;;;;;;;;;;6146874;23;19920;-86
2022/03/11 14:05:35;;;;;;;;;;;;;;;;;;6100925;23;20530;-86
2022/03/11 14:08:05;;;;;;;;;;;;;;;;;;6143975;23;19920;-86
2022/03/11 14:10:32;;;;;;;;;;;;;;;;;;6160653;23;19923;-86
2022/03/11 14:12:59;;;;;;;;;;;;;;;;;;6185178;23;19919;-86
2022/03/11 14:15:27;;;;;;;;;;;;;;;;;;6185203;23;19923;-86
2022/03/11 14:17:54;;;;;;;;;;;;;;;;;;6185072;23;19919;-86
2022/03/11 14:20:21;;;;;;;;;;;;;;;;;;6160868;23;19920;-86
2022/03/11 14:22:48;;;;;;;;;;;;;;;;;;6185471;23;19920;-86
2022/03/11 14:25:15;;;;;;;;;;;;;;;;;;6160085;23;20362;-86
2022/03/11 14:27:42;;;;;;;;;;;;;;;;;;6160560;23;19916;-86
2022/03/11 14:30:10;;;;;;;;;;;;;;;;;;6159526;23;19987;-86
2022/03/11 14:32:37;;;;;;;;;;;;;;;;;;6185019;23;19919;-86
2022/03/11 14:35:05;;;;;;;;;;;;;;;;;;6213542;22;19915;-86
2022/03/11 14:37:32;;;;;;;;;;;;;;;;;;6221279;22;19993;-86
2022/03/11 14:39:59;;;;;;;;;;;;;;;;;;6221062;22;19921;-86
2022/03/11 14:42:27;;;;;;;;;;;;;;;;;;6220990;22;19916;-86
2022/03/11 14:44:57;;;;;;;;;;;;;;;;;;6221622;22;19915;-86
2022/03/11 14:47:24;;;;;;;;;;;;;;;;;;6224049;22;20280;-85
2022/03/11 14:49:51;;;;;;;;;;;;;;;;;;6217821;22;19915;-86
2022/03/11 14:52:33;;;;;;;;;;;;;;;;;;6273828;22;19946;-86
2022/03/11 14:55:01;;;;;;;;;;;;;;;;;;6245692;22;20252;-86
2022/03/11 14:57:29;;;;;;;;;;;;;;;;;;6221397;22;19919;-86
2022/03/11 14:59:56;;;;;;;;;;;;;;;;;;6241886;22;19919;-85
2022/03/11 15:02:25;;;;;;;;;;;;;;;;;;6245822;22;19923;-83
2022/03/11 15:04:53;;;;;;;;;;;;;;;;;;6220540;22;19915;-83
2022/03/11 15:07:18;;;;;;;;;;;;;;;;;;6241487;22;19930;-83
2022/03/11 15:09:59;;;;;;;;;;;;;;;;;;6207349;23;19920;-83
2022/03/11 15:12:26;;;;;;;;;;;;;;;;;;6180797;23;19924;-81
2022/03/11 15:14:54;;;;;;;;;;;;;;;;;;6156292;23;19998;-84
2022/03/11 15:17:22;;;;;;;;;;;;;;;;;;6156623;23;20021;-82
2022/03/11 15:19:49;;;;;;;;;;;;;;;;;;6182526;23;20230;-86
2022/03/11 15:22:15;;;;;;;;;;;;;;;;;;6157148;23;20002;-86
2022/03/11 15:24:43;;;;;;;;;;;;;;;;;;6181814;23;19980;-85
2022/03/11 15:27:10;;;;;;;;;;;;;;;;;;6158002;23;19922;-86
2022/03/11 15:29:37;;;;;;;;;;;;;;;;;;6182393;23;19924;-85
2022/03/11 15:32:05;;;;;;;;;;;;;;;;;;6157669;23;19919;-86
2022/03/11 15:34:32;;;;;;;;;;;;;;;;;;6156986;23;19920;-86
2022/03/11 15:36:59;;;;;;;;;;;;;;;;;;6182550;23;19934;-86
2022/03/11 15:39:26;;;;;;;;;;;;;;;;;;6156666;23;19919;-86
2022/03/11 15:41:54;;;;;;;;;;;;;;;;;;6210260;22;19919;-85
2022/03/11 15:44:21;;;;;;;;;;;;;;;;;;6244196;22;19950;-85
2022/03/11 15:46:49;;;;;;;;;;;;;;;;;;6244257;22;19981;-85
2022/03/11 15:49:16;;;;;;;;;;;;;;;;;;6219189;22;20379;-86
2022/03/11 15:51:43;;;;;;;;;;;;;;;;;;6218471;22;19919;-85
2022/03/11 15:54:11;;;;;;;;;;;;;;;;;;6216593;22;19919;-85
2022/03/11 15:56:43;;;;;;;;;;;;;;;;;;6217388;22;19976;-85
2022/03/11 15:59:09;;;;;;;;;;;;;;;;;;6217538;22;19994;-86
2022/03/11 16:01:35;;;;;;;;;;;;;;;;;;6244221;22;19922;-85
2022/03/11 16:04:03;;;;;;;;;;;;;;;;;;6217297;22;20344;-86
2022/03/11 16:06:31;;;;;;;;;;;;;;;;;;6243192;22;20256;-86
2022/03/11 16:08:58;;;;;;;;;;;;;;;;;;6217333;22;20336;-87
2022/03/11 16:11:25;;;;;;;;;;;;;;;;;;6218396;22;19915;-85
2022/03/11 16:13:52;;;;;;;;;;;;;;;;;;6217995;22;20232;-85
2022/03/11 16:16:19;;;;;;;;;;;;;;;;;;6242488;22;20250;-85
2022/03/11 16:19:00;;;;;;;;;;;;;;;;;;6183118;23;19930;-85
2022/03/11 16:21:27;;;;;;;;;;;;;;;;;;6205040;23;20175;-86
2022/03/11 16:23:54;;;;;;;;;;;;;;;;;;6156573;23;19935;-85
2022/03/11 16:26:22;;;;;;;;;;;;;;;;;;6180686;23;19987;-86
2022/03/11 16:29:09;;;;;;;;;;;;;;;;;;6150535;23;19991;-85
2022/03/11 16:31:36;;;;;;;;;;;;;;;;;;6125437;23;19973;-85
2022/03/11 16:34:21;;;;;;;;;;;;;;;;;;6153870;23;19914;-85
2022/03/11 16:36:48;;;;;;;;;;;;;;;;;;6125625;23;19995;-84
2022/03/11 16:39:15;;;;;;;;;;;;;;;;;;6149824;23;19921;-85
2022/03/11 16:41:43;;;;;;;;;;;;;;;;;;6125734;23;19927;-85
2022/03/11 16:44:12;;;;;;;;;;;;;;;;;;6149010;23;20772;-87
2022/03/11 16:46:42;;;;;;;;;;;;;;;;;;6149071;23;20377;-86
2022/03/11 16:49:09;;;;;;;;;;;;;;;;;;6132352;23;20253;-86
2022/03/11 16:51:36;;;;;;;;;;;;;;;;;;6183273;23;20022;-87
2022/03/11 16:54:03;;;;;;;;;;;;;;;;;;6209888;23;19962;-86
2022/03/11 16:56:30;;;;;;;;;;;;;;;;;;6184337;23;19991;-86
2022/03/11 16:58:56;;;;;;;;;;;;;;;;;;6210630;23;19919;-86
2022/03/11 17:01:24;;;;;;;;;;;;;;;;;;6183690;23;19915;-86
2022/03/11 17:03:50;;;;;;;;;;;;;;;;;;6208156;23;19919;-86
2022/03/11 17:06:16;;;;;;;;;;;;;;;;;;6184273;23;20287;-85
2022/03/11 17:08:42;;;;;;;;;;;;;;;;;;6184143;23;19923;-85
2022/03/11 17:11:09;;;;;;;;;;;;;;;;;;6185355;23;19998;-86
2022/03/11 17:13:37;;;;;;;;;;;;;;;;;;6234962;22;19920;-85
2022/03/11 17:16:04;;;;;;;;;;;;;;;;;;6241695;22;19950;-85
2022/03/11 17:18:32;;;;;;;;;;;;;;;;;;6217189;22;19923;-86
2022/03/11 17:21:00;;;;;;;;;;;;;;;;;;6243935;22;19919;-86
2022/03/11 17:23:27;;;;;;;;;;;;;;;;;;6218126;22;19965;-86
2022/03/11 17:25:53;;;;;;;;;;;;;;;;;;6242259;22;20005;-86
2022/03/11 17:28:21;;;;;;;;;;;;;;;;;;6241394;22;19961;-86
2022/03/11 17:30:48;;;;;;;;;;;;;;;;;;6240595;22;19926;-85
2022/03/11 17:33:16;;;;;;;;;;;;;;;;;;6240282;22;20389;-86
2022/03/11 17:35:45;;;;;;;;;;;;;;;;;;6238598;22;20298;-86
2022/03/11 17:38:16;;;;;;;;;;;;;;;;;;6239099;22;20003;-86
2022/03/11 17:40:43;;;;;;;;;;;;;;;;;;6240700;22;20273;-86
2022/03/11 17:43:10;;;;;;;;;;;;;;;;;;6240211;22;19926;-85
2022/03/11 17:45:37;;;;;;;;;;;;;;;;;;6214780;22;20289;-86
2022/03/11 17:48:05;;;;;;;;;;;;;;;;;;6241406;22;20388;-86
2022/03/11 17:50:32;;;;;;;;;;;;;;;;;;6241996;22;20014;-85